Time;durP1;ratioP1;P1;durP2;ratioP2;P2;SDS_P1;SDS_P2;PMS_P1;PMS_P2;Temp;Humidity;BMP_temperature;BMP_pressure;BME280_temperature;BME280_humidity;BME280_pressure;Samples;Min_cycle;Max_cycle;Signal;HPM_P1;HPM_P2
2022/03/26 00:01:38;;;;;;;110.35;62.47;;;5.30;99.90;;;;;;4992051;28;20113;-46
2022/03/26 00:04:03;;;;;;;105.68;60.28;;;5.30;99.90;;;;;;4990893;28;20699;-48
2022/03/26 00:06:29;;;;;;;105.13;58.75;;;5.30;99.90;;;;;;4992638;28;20030;-50
2022/03/26 00:08:55;;;;;;;102.38;57.83;;;5.20;99.90;;;;;;5009051;28;20459;-47
2022/03/26 00:11:21;;;;;;;98.25;58.05;;;5.20;99.90;;;;;;5009756;28;20041;-47
2022/03/26 00:13:46;;;;;;;101.47;59.20;;;5.20;99.90;;;;;;5008512;28;20033;-46
2022/03/26 00:16:12;;;;;;;102.10;59.22;;;5.10;99.90;;;;;;5008276;28;20575;-49
2022/03/26 00:18:38;;;;;;;95.47;58.10;;;5.10;99.90;;;;;;5009493;28;20041;-47
2022/03/26 00:21:04;;;;;;;113.57;58.33;;;5.10;99.90;;;;;;5009939;28;20105;-47
2022/03/26 00:23:30;;;;;;;104.25;59.35;;;5.10;99.90;;;;;;5009217;28;20044;-50
2022/03/26 00:25:58;;;;;;;102.63;59.25;;;5.00;99.90;;;;;;5008239;28;20031;-48
2022/03/26 00:28:25;;;;;;;101.55;58.28;;;5.00;99.90;;;;;;5008198;28;20123;-50
2022/03/26 00:30:50;;;;;;;115.63;63.22;;;5.00;99.90;;;;;;4991954;28;20407;-48
2022/03/26 00:33:17;;;;;;;107.22;61.58;;;5.00;99.90;;;;;;5009594;28;20030;-49
2022/03/26 00:35:43;;;;;;;111.57;61.10;;;4.90;99.90;;;;;;5007685;28;20034;-45
2022/03/26 00:38:09;;;;;;;108.85;60.58;;;4.90;99.90;;;;;;5008990;28;20025;-51
2022/03/26 00:40:35;;;;;;;106.40;59.75;;;4.90;99.90;;;;;;5009283;28;20108;-49
2022/03/26 00:43:01;;;;;;;117.00;62.63;;;4.90;99.90;;;;;;5008001;28;20058;-49
2022/03/26 00:45:29;;;;;;;109.78;61.90;;;4.80;99.90;;;;;;5007218;28;20689;-47
2022/03/26 00:47:55;;;;;;;106.70;63.15;;;4.90;99.90;;;;;;4994381;28;20473;-49
2022/03/26 00:50:21;;;;;;;102.03;63.60;;;4.80;99.90;;;;;;5007820;28;20095;-47
2022/03/26 00:52:47;;;;;;;102.60;59.55;;;4.70;99.90;;;;;;5007555;28;20504;-49
2022/03/26 00:55:13;;;;;;;111.07;64.07;;;4.70;99.90;;;;;;4993210;28;20036;-47
2022/03/26 00:57:39;;;;;;;109.80;60.80;;;4.70;99.90;;;;;;4996019;28;20641;-50
2022/03/26 01:00:06;;;;;;;107.70;60.35;;;4.70;99.90;;;;;;5008639;28;20072;-46
2022/03/26 01:02:33;;;;;;;116.55;62.30;;;4.70;99.90;;;;;;5008519;28;20065;-46
2022/03/26 01:04:59;;;;;;;105.80;63.05;;;4.60;99.90;;;;;;5008726;28;20496;-48
2022/03/26 01:07:26;;;;;;;113.07;64.50;;;4.60;99.90;;;;;;5007794;28;20113;-47
2022/03/26 01:09:52;;;;;;;109.25;63.00;;;4.60;99.90;;;;;;5008190;28;20536;-47
2022/03/26 01:12:17;;;;;;;114.57;64.10;;;4.60;99.90;;;;;;4990981;28;20034;-47
2022/03/26 01:14:43;;;;;;;110.38;63.97;;;4.60;99.90;;;;;;4998342;28;20105;-46
2022/03/26 01:17:08;;;;;;;112.53;61.83;;;4.50;99.90;;;;;;4992702;28;20031;-48
2022/03/26 01:19:34;;;;;;;109.72;62.20;;;4.50;99.90;;;;;;4989672;28;20034;-47
2022/03/26 01:22:00;;;;;;;104.72;62.13;;;4.50;99.90;;;;;;4994742;28;20604;-46
2022/03/26 01:24:26;;;;;;;106.95;60.58;;;4.50;99.90;;;;;;5009330;28;20026;-45
2022/03/26 01:26:51;;;;;;;117.32;65.25;;;4.40;99.90;;;;;;5007793;28;20026;-45
2022/03/26 01:29:17;;;;;;;108.28;62.88;;;4.40;99.90;;;;;;5008947;28;20062;-47
2022/03/26 01:31:43;;;;;;;112.22;64.22;;;4.50;99.90;;;;;;5008632;28;20022;-48
2022/03/26 01:34:09;;;;;;;112.57;65.05;;;4.40;99.90;;;;;;5008747;28;20032;-48
2022/03/26 01:36:34;;;;;;;112.32;62.58;;;4.40;99.90;;;;;;5008431;28;20026;-44
2022/03/26 01:39:00;;;;;;;105.40;60.50;;;4.40;99.90;;;;;;5002104;28;20062;-46
2022/03/26 01:41:26;;;;;;;112.60;64.50;;;4.40;99.90;;;;;;4989684;28;20030;-45
2022/03/26 01:43:52;;;;;;;110.68;61.30;;;4.40;99.90;;;;;;4990295;28;20034;-46
2022/03/26 01:46:20;;;;;;;117.35;65.10;;;4.30;99.90;;;;;;4987179;28;20192;-43
2022/03/26 01:48:47;;;;;;;110.95;62.58;;;4.30;99.90;;;;;;4990118;28;20073;-46
2022/03/26 01:51:16;;;;;;;106.28;58.10;;;4.30;99.90;;;;;;5002129;28;20516;-47
2022/03/26 01:53:47;;;;;;;118.90;63.38;;;4.30;99.90;;;;;;4987958;28;20034;-46
2022/03/26 01:56:13;;;;;;;110.38;62.28;;;4.30;99.90;;;;;;4989341;28;20027;-45
2022/03/26 01:58:39;;;;;;;106.57;62.78;;;4.20;99.90;;;;;;4997997;28;20177;-45
2022/03/26 02:01:05;;;;;;;117.32;64.78;;;4.20;99.90;;;;;;4988834;28;20140;-47
2022/03/26 02:03:31;;;;;;;115.88;63.67;;;4.20;99.90;;;;;;5006849;28;20042;-46
2022/03/26 02:05:57;;;;;;;121.55;66.65;;;4.20;99.90;;;;;;4977762;28;20432;-45
2022/03/26 02:08:22;;;;;;;125.55;68.93;;;4.20;99.90;;;;;;4988657;28;20033;-44
2022/03/26 02:10:48;;;;;;;120.05;67.43;;;4.20;99.90;;;;;;4987730;28;20038;-48
2022/03/26 02:13:14;;;;;;;130.00;67.90;;;4.10;99.90;;;;;;4992469;28;20335;-46
2022/03/26 02:15:40;;;;;;;124.47;67.97;;;4.20;99.90;;;;;;4992761;28;20138;-44
2022/03/26 02:18:06;;;;;;;124.15;69.03;;;4.20;99.90;;;;;;4996548;28;20408;-45
2022/03/26 02:20:32;;;;;;;128.45;71.38;;;4.20;99.90;;;;;;4991022;28;20034;-47
2022/03/26 02:22:57;;;;;;;135.85;71.10;;;4.10;99.90;;;;;;4990408;28;20640;-45
2022/03/26 02:25:23;;;;;;;117.53;67.35;;;4.10;99.90;;;;;;4992583;28;20420;-46
2022/03/26 02:27:49;;;;;;;119.38;69.32;;;4.10;99.90;;;;;;4991360;28;20027;-45
2022/03/26 02:30:14;;;;;;;121.35;66.80;;;4.10;99.90;;;;;;4996490;28;20025;-45
2022/03/26 02:32:40;;;;;;;122.13;67.35;;;4.10;99.90;;;;;;4998982;28;20023;-47
2022/03/26 02:35:06;;;;;;;119.28;67.38;;;4.10;99.90;;;;;;4990743;28;20105;-50
2022/03/26 02:37:32;;;;;;;126.97;68.43;;;4.10;99.90;;;;;;4991801;28;20065;-46
2022/03/26 02:39:59;;;;;;;120.43;66.45;;;4.10;99.90;;;;;;5010935;28;20419;-50
2022/03/26 02:42:25;;;;;;;124.07;65.90;;;4.10;99.90;;;;;;5011135;28;20026;-46
2022/03/26 02:44:52;;;;;;;127.68;68.88;;;4.10;99.90;;;;;;4994855;28;20049;-45
2022/03/26 02:47:17;;;;;;;120.82;67.93;;;4.00;99.90;;;;;;4999087;28;20026;-47
2022/03/26 02:49:43;;;;;;;125.85;69.78;;;4.00;99.90;;;;;;5008845;28;20030;-46
2022/03/26 02:52:09;;;;;;;125.18;70.60;;;4.00;99.90;;;;;;4995885;28;20089;-48
2022/03/26 02:54:35;;;;;;;125.35;68.28;;;4.10;99.90;;;;;;5011454;28;20030;-47
2022/03/26 02:57:01;;;;;;;123.20;68.40;;;4.10;99.90;;;;;;5002078;28;20467;-47
2022/03/26 02:59:28;;;;;;;119.30;67.97;;;4.10;99.90;;;;;;4989379;28;20034;-49
2022/03/26 03:01:53;;;;;;;129.30;68.78;;;4.10;99.90;;;;;;5003871;28;20062;-46
2022/03/26 03:04:20;;;;;;;120.03;66.18;;;4.10;99.90;;;;;;5011187;28;20057;-45
2022/03/26 03:06:46;;;;;;;117.18;64.32;;;4.10;99.90;;;;;;5009135;28;20022;-46
2022/03/26 03:09:12;;;;;;;118.75;64.57;;;4.10;99.90;;;;;;5011514;28;20037;-45
2022/03/26 03:11:38;;;;;;;115.22;65.00;;;4.10;99.90;;;;;;5008449;28;20148;-46
2022/03/26 03:14:06;;;;;;;133.13;69.35;;;4.00;99.90;;;;;;4992824;28;20384;-46
2022/03/26 03:16:32;;;;;;;122.95;65.82;;;4.10;99.90;;;;;;4991540;28;20044;-45
2022/03/26 03:18:58;;;;;;;112.85;61.65;;;4.00;99.90;;;;;;5004635;28;20042;-44
2022/03/26 03:21:24;;;;;;;118.90;64.07;;;4.00;99.90;;;;;;5010934;28;20022;-47
2022/03/26 03:23:49;;;;;;;118.82;64.53;;;4.10;99.90;;;;;;5009080;28;20065;-47
2022/03/26 03:26:15;;;;;;;120.25;61.75;;;4.10;99.90;;;;;;4997227;28;20027;-44
2022/03/26 03:28:42;;;;;;;119.32;64.55;;;4.00;99.90;;;;;;4990448;28;20488;-44
2022/03/26 03:31:08;;;;;;;113.63;61.00;;;4.00;99.90;;;;;;4991178;28;20406;-46
2022/03/26 03:33:34;;;;;;;110.68;61.33;;;4.00;99.90;;;;;;5007305;28;20571;-46
2022/03/26 03:36:00;;;;;;;110.72;59.28;;;3.90;99.90;;;;;;5009325;28;20034;-44
2022/03/26 03:38:26;;;;;;;112.18;60.40;;;3.90;99.90;;;;;;5009257;28;20030;-46
2022/03/26 03:40:51;;;;;;;117.20;59.40;;;3.90;99.90;;;;;;5008713;28;20124;-46
2022/03/26 03:43:17;;;;;;;104.07;61.30;;;3.90;99.90;;;;;;4993475;28;20106;-47
2022/03/26 03:45:43;;;;;;;110.05;59.40;;;3.90;99.90;;;;;;4993518;28;20105;-43
2022/03/26 03:48:09;;;;;;;98.50;58.17;;;3.80;99.90;;;;;;4991983;28;20077;-43
2022/03/26 03:50:34;;;;;;;107.65;57.90;;;3.90;99.90;;;;;;4989564;28;20037;-45
2022/03/26 03:53:00;;;;;;;107.50;58.72;;;3.80;99.90;;;;;;4990879;28;20037;-47
2022/03/26 03:55:27;;;;;;;115.57;61.60;;;3.80;99.90;;;;;;4990526;28;20040;-46
2022/03/26 03:57:53;;;;;;;104.47;60.70;;;3.80;99.90;;;;;;4993286;28;20097;-46
2022/03/26 04:00:19;;;;;;;109.22;61.90;;;3.80;99.90;;;;;;4989730;28;20468;-45
2022/03/26 04:02:44;;;;;;;104.05;56.92;;;3.80;99.90;;;;;;4989297;28;20069;-45
2022/03/26 04:05:10;;;;;;;114.00;61.25;;;3.80;99.90;;;;;;4990681;28;20023;-45
2022/03/26 04:07:37;;;;;;;123.53;64.90;;;3.80;99.90;;;;;;4989434;28;20030;-45
2022/03/26 04:10:04;;;;;;;102.10;56.30;;;3.80;99.90;;;;;;4990482;28;20026;-44
2022/03/26 04:12:30;;;;;;;112.10;63.00;;;3.80;99.90;;;;;;5000181;28;20088;-47
2022/03/26 04:14:56;;;;;;;112.43;62.08;;;3.80;99.90;;;;;;5008217;28;20026;-45
2022/03/26 04:17:22;;;;;;;105.38;60.42;;;3.90;99.90;;;;;;5009148;28;20483;-47
2022/03/26 04:19:47;;;;;;;109.22;61.38;;;3.90;99.90;;;;;;5010076;28;20026;-46
2022/03/26 04:22:13;;;;;;;115.75;64.15;;;3.90;99.90;;;;;;5000443;28;20049;-46
2022/03/26 04:24:40;;;;;;;118.72;62.97;;;3.80;99.90;;;;;;4989237;28;20452;-48
2022/03/26 04:27:06;;;;;;;119.45;63.50;;;3.90;99.90;;;;;;4999869;28;20030;-49
2022/03/26 04:29:32;;;;;;;120.03;63.45;;;3.80;99.90;;;;;;4995080;28;20588;-48
2022/03/26 04:31:58;;;;;;;106.55;62.00;;;3.80;99.90;;;;;;5006903;28;20034;-48
2022/03/26 04:34:24;;;;;;;116.88;63.88;;;3.80;99.90;;;;;;5009823;28;20030;-48
2022/03/26 04:36:49;;;;;;;114.50;63.35;;;3.80;99.90;;;;;;4993000;28;20029;-46
2022/03/26 04:39:15;;;;;;;112.70;61.92;;;3.80;99.90;;;;;;4989955;28;20026;-48
2022/03/26 04:41:40;;;;;;;116.72;62.85;;;3.80;99.90;;;;;;4998170;28;20096;-44
2022/03/26 04:44:06;;;;;;;118.40;62.40;;;3.70;99.90;;;;;;5009224;28;20045;-47
2022/03/26 04:46:34;;;;;;;125.65;65.18;;;3.70;99.90;;;;;;5006652;28;20064;-47
2022/03/26 04:48:59;;;;;;;121.72;63.42;;;3.70;99.90;;;;;;5009393;28;20109;-49
2022/03/26 04:51:25;;;;;;;134.77;66.55;;;3.70;99.90;;;;;;5009309;28;20444;-47
2022/03/26 04:53:51;;;;;;;124.38;65.03;;;3.70;99.90;;;;;;5009395;28;20034;-47
2022/03/26 04:56:17;;;;;;;113.57;62.00;;;3.70;99.90;;;;;;5005633;28;20026;-46
2022/03/26 04:58:42;;;;;;;109.82;63.55;;;3.70;99.90;;;;;;4989553;28;20423;-47
2022/03/26 05:01:08;;;;;;;122.32;63.05;;;3.60;99.90;;;;;;4990112;28;20034;-48
2022/03/26 05:03:33;;;;;;;115.10;63.72;;;3.60;99.90;;;;;;4988766;28;20030;-46
2022/03/26 05:05:59;;;;;;;118.43;64.30;;;3.60;99.90;;;;;;4988605;28;20378;-46
2022/03/26 05:08:25;;;;;;;117.63;62.05;;;3.70;99.90;;;;;;5005016;28;20034;-47
2022/03/26 05:13:20;;;;;;;115.45;61.13;;;3.60;99.90;;;;;;4967267;28;20592;-47
2022/03/26 05:15:45;;;;;;;112.38;62.88;;;3.60;99.90;;;;;;4970037;28;20023;-52
2022/03/26 05:18:13;;;;;;;123.65;68.15;;;3.60;99.90;;;;;;4970074;28;20648;-50
2022/03/26 05:20:38;;;;;;;113.28;64.90;;;3.60;99.90;;;;;;4970002;28;20026;-49
2022/03/26 05:23:05;;;;;;;129.25;68.18;;;3.70;99.90;;;;;;4969540;28;20054;-48
2022/03/26 05:25:31;;;;;;;120.10;66.05;;;3.70;99.90;;;;;;4969988;28;20055;-49
2022/03/26 05:27:57;;;;;;;116.60;64.15;;;3.70;99.90;;;;;;4983537;28;20061;-49
2022/03/26 05:30:24;;;;;;;128.50;66.65;;;3.70;99.90;;;;;;4981872;28;20034;-52
2022/03/26 05:32:50;;;;;;;113.75;61.72;;;3.70;99.90;;;;;;4984379;28;20026;-50
2022/03/26 05:35:16;;;;;;;120.75;64.55;;;3.70;99.90;;;;;;4969977;28;20080;-50
2022/03/26 05:37:43;;;;;;;126.90;65.47;;;3.70;99.90;;;;;;4971047;28;20030;-48
2022/03/26 05:40:10;;;;;;;120.32;65.82;;;3.70;99.90;;;;;;4976302;28;20054;-50
2022/03/26 05:42:36;;;;;;;123.00;65.78;;;3.80;99.90;;;;;;4969945;28;20162;-50
2022/03/26 05:45:07;;;;;;;130.52;70.85;;;3.80;99.90;;;;;;4971072;28;20035;-50
2022/03/26 05:47:34;;;;;;;129.10;67.88;;;3.80;99.90;;;;;;4984665;28;20030;-47
2022/03/26 05:50:00;;;;;;;134.23;66.43;;;3.90;99.90;;;;;;4993057;28;20754;-48
2022/03/26 05:52:26;;;;;;;131.95;71.45;;;3.90;99.90;;;;;;4978591;28;20027;-48
2022/03/26 05:54:51;;;;;;;122.78;68.07;;;4.00;99.90;;;;;;4973685;28;20035;-52
2022/03/26 05:57:18;;;;;;;136.02;69.22;;;4.00;99.90;;;;;;4973286;28;20037;-51
2022/03/26 05:59:45;;;;;;;129.02;69.85;;;4.10;99.90;;;;;;4973195;28;20026;-52
2022/03/26 06:02:12;;;;;;;140.20;70.22;;;4.10;99.90;;;;;;4973284;28;20031;-52
2022/03/26 06:04:38;;;;;;;133.52;70.18;;;4.20;99.90;;;;;;4973189;28;20046;-49
2022/03/26 06:07:04;;;;;;;138.70;70.63;;;4.20;99.90;;;;;;4971081;28;20031;-49
2022/03/26 06:09:29;;;;;;;139.70;70.60;;;4.30;99.90;;;;;;4972844;28;20041;-52
2022/03/26 06:11:56;;;;;;;140.80;71.07;;;4.30;99.90;;;;;;4972827;28;20034;-50
2022/03/26 06:14:22;;;;;;;135.18;68.43;;;4.40;99.90;;;;;;4972899;28;20031;-50
2022/03/26 06:16:47;;;;;;;138.98;73.55;;;4.40;99.90;;;;;;4973142;28;20497;-46
2022/03/26 06:19:14;;;;;;;145.30;72.57;;;4.50;99.90;;;;;;4973134;28;20121;-47
2022/03/26 06:21:40;;;;;;;134.18;69.07;;;4.60;99.90;;;;;;4973119;28;20027;-50
2022/03/26 06:24:06;;;;;;;133.27;68.90;;;4.60;99.90;;;;;;4972549;28;20381;-48
2022/03/26 06:26:31;;;;;;;126.50;66.57;;;4.70;99.90;;;;;;4972590;28;20058;-48
2022/03/26 06:28:57;;;;;;;133.70;71.90;;;4.80;99.90;;;;;;4971792;28;20089;-51
2022/03/26 06:31:23;;;;;;;134.25;72.28;;;4.90;99.90;;;;;;4972082;28;20069;-48
2022/03/26 06:33:49;;;;;;;139.88;71.40;;;5.00;99.90;;;;;;4972331;28;20034;-50
2022/03/26 06:36:15;;;;;;;135.23;69.40;;;5.00;99.90;;;;;;4972894;28;20596;-51
2022/03/26 06:38:42;;;;;;;132.00;70.25;;;5.10;99.90;;;;;;4972534;28;20043;-53
2022/03/26 06:41:09;;;;;;;139.40;69.10;;;5.20;99.90;;;;;;4972331;28;20030;-50
2022/03/26 06:43:38;;;;;;;127.50;66.90;;;5.30;99.90;;;;;;4972155;28;20042;-48
2022/03/26 06:46:04;;;;;;;132.80;69.35;;;5.40;99.90;;;;;;4987300;28;20034;-53
2022/03/26 06:48:31;;;;;;;127.63;67.45;;;5.50;99.90;;;;;;4972172;28;20023;-49
2022/03/26 06:50:57;;;;;;;130.93;71.10;;;5.50;99.90;;;;;;4987326;28;20413;-51
2022/03/26 06:53:23;;;;;;;120.72;63.55;;;5.60;99.90;;;;;;4971888;28;20045;-51
2022/03/26 06:55:48;;;;;;;120.22;64.13;;;5.70;99.90;;;;;;4972498;28;20031;-50
2022/03/26 06:58:14;;;;;;;122.40;64.60;;;5.70;99.90;;;;;;4970780;28;20041;-49
2022/03/26 07:00:39;;;;;;;116.57;64.10;;;5.80;99.90;;;;;;4971919;28;20022;-51
2022/03/26 07:03:05;;;;;;;115.05;62.20;;;5.90;99.90;;;;;;4971808;28;20037;-48
2022/03/26 07:05:31;;;;;;;106.90;59.00;;;6.00;99.90;;;;;;4971888;28;20019;-48
2022/03/26 07:07:57;;;;;;;102.75;58.25;;;6.10;99.90;;;;;;4972399;28;20034;-51
2022/03/26 07:10:23;;;;;;;99.53;58.45;;;6.20;99.90;;;;;;4972385;28;20563;-50
2022/03/26 07:12:48;;;;;;;98.70;54.67;;;6.40;99.90;;;;;;4971416;28;20030;-49
2022/03/26 07:15:15;;;;;;;97.38;54.58;;;6.50;99.90;;;;;;4972377;28;20031;-47
2022/03/26 07:17:42;;;;;;;94.07;52.72;;;6.60;99.90;;;;;;4971544;28;20027;-49
2022/03/26 07:20:08;;;;;;;100.60;53.70;;;6.80;99.90;;;;;;4972036;28;20444;-50
2022/03/26 07:22:34;;;;;;;96.53;51.65;;;6.90;99.90;;;;;;4971538;28;20023;-51
2022/03/26 07:25:00;;;;;;;85.70;50.35;;;7.00;99.90;;;;;;4971972;28;20029;-49
2022/03/26 07:27:31;;;;;;;82.60;50.05;;;7.10;99.90;;;;;;4971721;28;20110;-50
2022/03/26 07:29:57;;;;;;;74.80;46.25;;;7.30;99.90;;;;;;4971862;28;20034;-48
2022/03/26 07:32:23;;;;;;;83.03;46.50;;;7.40;99.90;;;;;;4971655;28;20031;-48
2022/03/26 07:34:49;;;;;;;75.57;44.17;;;7.50;99.90;;;;;;4971675;28;20031;-49
2022/03/26 07:37:14;;;;;;;76.07;44.22;;;7.60;99.90;;;;;;4971971;28;20069;-49
2022/03/26 07:39:40;;;;;;;74.80;43.92;;;7.70;99.90;;;;;;4971304;28;20026;-47
2022/03/26 07:42:06;;;;;;;73.80;43.08;;;7.80;99.90;;;;;;4971199;28;20042;-49
2022/03/26 07:44:32;;;;;;;77.60;41.80;;;7.80;99.90;;;;;;4971498;28;20173;-49
2022/03/26 07:46:57;;;;;;;69.97;40.35;;;7.90;99.90;;;;;;4971500;28;20050;-49
2022/03/26 07:49:23;;;;;;;66.90;40.30;;;8.00;99.90;;;;;;4986225;28;20501;-51
2022/03/26 07:51:48;;;;;;;67.25;39.58;;;8.10;99.90;;;;;;4970813;28;20030;-49
2022/03/26 07:54:14;;;;;;;61.63;38.45;;;8.20;99.90;;;;;;4970988;28;20031;-50
2022/03/26 07:56:40;;;;;;;65.97;37.58;;;8.30;99.90;;;;;;4985788;28;20085;-50
2022/03/26 07:59:05;;;;;;;58.35;34.35;;;8.50;99.90;;;;;;4971384;28;20031;-54
2022/03/26 08:01:31;;;;;;;64.05;36.40;;;8.60;99.90;;;;;;4971551;28;20030;-53
2022/03/26 08:03:57;;;;;;;56.47;32.88;;;8.70;99.90;;;;;;4969768;28;20035;-53
2022/03/26 08:06:24;;;;;;;55.92;33.58;;;8.80;99.90;;;;;;4970859;28;20027;-53
2022/03/26 08:08:50;;;;;;;51.33;32.33;;;8.90;99.90;;;;;;4970669;28;20076;-49
2022/03/26 08:11:16;;;;;;;55.92;33.92;;;9.00;99.90;;;;;;4984757;28;20117;-52
2022/03/26 08:13:42;;;;;;;57.50;31.45;;;9.00;99.90;;;;;;4970932;28;20042;-51
2022/03/26 08:16:08;;;;;;;53.67;31.60;;;9.10;99.90;;;;;;4970943;28;20038;-53
2022/03/26 08:18:34;;;;;;;47.08;30.95;;;9.20;99.90;;;;;;4970723;28;20045;-50
2022/03/26 08:21:00;;;;;;;48.50;30.35;;;9.40;99.90;;;;;;4970583;28;20402;-49
2022/03/26 08:23:25;;;;;;;48.63;30.88;;;9.60;99.90;;;;;;4970739;28;20039;-53
2022/03/26 08:28:36;;;;;;;45.40;28.63;;;10.20;99.90;;;;;;4970690;28;20081;-48
2022/03/26 08:31:02;;;;;;;43.72;30.45;;;10.50;99.90;;;;;;4970068;28;20487;-50
2022/03/26 08:33:27;;;;;;;46.88;29.45;;;10.70;99.90;;;;;;4969019;28;20037;-54
2022/03/26 08:35:53;;;;;;;43.90;28.95;;;10.90;99.90;;;;;;4969618;28;20038;-47
2022/03/26 08:38:18;;;;;;;42.22;27.88;;;11.10;99.90;;;;;;4985395;28;20046;-48
2022/03/26 08:40:44;;;;;;;46.15;27.83;;;11.30;99.90;;;;;;4970152;28;20038;-50
2022/03/26 08:43:10;;;;;;;39.17;26.45;;;11.50;99.90;;;;;;4969824;28;20038;-49
2022/03/26 08:45:36;;;;;;;40.35;24.92;;;11.70;99.90;;;;;;4970508;28;20023;-51
2022/03/26 08:48:03;;;;;;;40.10;25.10;;;11.60;99.90;;;;;;4970437;28;20359;-48
2022/03/26 08:50:28;;;;;;;37.60;25.15;;;11.50;99.90;;;;;;4969815;28;20031;-46
2022/03/26 08:52:54;;;;;;;37.50;24.42;;;11.50;99.90;;;;;;4970579;28;20027;-51
2022/03/26 08:55:20;;;;;;;40.08;24.77;;;11.40;99.90;;;;;;4970255;28;20035;-50
2022/03/26 08:57:46;;;;;;;37.95;25.10;;;11.40;99.90;;;;;;4970552;28;20065;-54
2022/03/26 09:00:13;;;;;;;36.55;24.35;;;11.40;99.90;;;;;;4969027;28;20492;-49
2022/03/26 09:02:39;;;;;;;37.15;23.98;;;11.40;99.90;;;;;;4970256;28;20031;-50
2022/03/26 09:05:08;;;;;;;32.75;22.10;;;11.50;99.90;;;;;;4970201;28;20027;-52
2022/03/26 09:07:35;;;;;;;33.25;21.58;;;11.70;99.90;;;;;;4969762;28;20129;-50
2022/03/26 09:10:01;;;;;;;29.08;19.38;;;11.80;99.90;;;;;;4969895;28;20054;-47
2022/03/26 09:12:26;;;;;;;30.60;19.45;;;11.70;99.90;;;;;;4969452;28;20050;-50
2022/03/26 09:14:52;;;;;;;25.50;16.67;;;11.80;99.90;;;;;;4970382;28;20031;-51
2022/03/26 09:17:17;;;;;;;26.15;15.90;;;11.70;99.90;;;;;;4970019;28;20022;-48
2022/03/26 09:19:43;;;;;;;25.60;14.73;;;11.70;99.90;;;;;;4969872;28;20121;-48
2022/03/26 09:22:09;;;;;;;21.50;14.30;;;11.80;99.90;;;;;;4987190;28;20019;-51
2022/03/26 09:24:35;;;;;;;20.85;14.18;;;11.90;99.90;;;;;;4973551;28;20130;-48
2022/03/26 09:27:00;;;;;;;16.48;10.13;;;12.00;99.90;;;;;;4973666;28;20042;-49
2022/03/26 09:29:26;;;;;;;16.02;10.45;;;12.00;99.90;;;;;;4973970;28;20635;-49
2022/03/26 09:31:52;;;;;;;14.65;9.43;;;12.10;99.90;;;;;;4973715;28;20039;-55
2022/03/26 09:34:17;;;;;;;14.45;9.65;;;12.30;99.90;;;;;;4973439;28;20031;-53
2022/03/26 09:36:43;;;;;;;12.75;9.43;;;12.40;99.90;;;;;;4973576;28;20050;-51
2022/03/26 09:39:09;;;;;;;15.07;9.85;;;12.50;99.90;;;;;;4973379;28;20611;-49
2022/03/26 09:41:35;;;;;;;14.60;8.57;;;12.50;99.90;;;;;;4973441;28;20027;-52
2022/03/26 09:44:02;;;;;;;12.63;9.10;;;12.40;99.90;;;;;;4972701;28;20023;-49
2022/03/26 09:46:28;;;;;;;14.73;9.82;;;12.40;99.90;;;;;;4973875;28;20549;-47
2022/03/26 09:48:54;;;;;;;15.63;9.60;;;12.40;99.90;;;;;;4988025;28;20134;-49
2022/03/26 09:51:24;;;;;;;15.52;9.80;;;12.40;99.90;;;;;;4973447;28;20039;-48
2022/03/26 09:53:52;;;;;;;17.42;9.63;;;12.40;99.90;;;;;;4973012;28;20027;-50
2022/03/26 09:56:19;;;;;;;16.13;10.68;;;12.40;99.90;;;;;;4973334;28;20046;-49
2022/03/26 09:58:45;;;;;;;13.15;9.07;;;12.40;99.90;;;;;;4972714;28;20037;-48
2022/03/26 10:01:10;;;;;;;31.60;11.88;;;12.40;99.90;;;;;;4973577;28;20042;-50
2022/03/26 10:03:39;;;;;;;23.92;11.38;;;12.50;99.90;;;;;;4972841;28;20053;-49
2022/03/26 10:06:09;;;;;;;21.63;10.15;;;12.40;99.90;;;;;;4990058;28;20074;-48
2022/03/26 10:08:36;;;;;;;17.05;9.13;;;12.50;99.90;;;;;;4984529;28;20018;-49
2022/03/26 10:11:03;;;;;;;12.02;9.43;;;12.40;99.90;;;;;;4988062;28;20027;-49
2022/03/26 10:13:36;;;;;;;13.85;9.23;;;12.40;99.90;;;;;;4978744;28;20031;-52
2022/03/26 10:16:08;;;;;;;32.13;11.65;;;12.30;99.90;;;;;;4972858;28;20030;-54
2022/03/26 10:18:38;;;;;;;14.05;8.75;;;12.30;99.90;;;;;;4973609;28;20057;-48
2022/03/26 10:21:07;;;;;;;11.82;9.20;;;12.20;99.90;;;;;;4972905;28;20045;-49
2022/03/26 10:23:33;;;;;;;13.60;9.40;;;12.10;99.90;;;;;;4972197;28;20026;-48
2022/03/26 10:26:13;;;;;;;15.85;9.60;;;12.20;99.90;;;;;;4973103;28;20022;-52
2022/03/26 10:28:43;;;;;;;12.73;9.05;;;12.20;99.90;;;;;;4987470;28;20157;-47
2022/03/26 10:34:21;;;;;;;13.57;9.68;;;12.30;99.90;;;;;;4972223;28;20547;-50
2022/03/26 10:36:55;;;;;;;16.13;9.02;;;12.40;99.90;;;;;;4972376;28;20034;-48
2022/03/26 10:39:23;;;;;;;13.02;9.25;;;12.40;99.90;;;;;;4972546;28;20027;-49
2022/03/26 10:41:52;;;;;;;12.82;10.10;;;12.40;99.90;;;;;;4972404;28;20077;-52
2022/03/26 10:44:22;;;;;;;14.38;9.70;;;12.40;99.90;;;;;;4972395;28;20031;-46
2022/03/26 10:46:56;;;;;;;16.88;10.23;;;12.50;99.90;;;;;;4972937;28;20474;-48
2022/03/26 10:49:33;;;;;;;15.63;10.82;;;12.50;99.90;;;;;;4972899;28;20022;-48
2022/03/26 10:52:12;;;;;;;13.65;10.65;;;12.60;99.90;;;;;;4972132;28;20030;-47
2022/03/26 10:54:38;;;;;;;14.43;10.38;;;12.70;99.90;;;;;;4987537;28;20027;-52
2022/03/26 10:57:05;;;;;;;13.60;10.25;;;12.70;99.90;;;;;;4972738;28;20035;-49
2022/03/26 10:59:31;;;;;;;11.50;9.10;;;12.80;99.90;;;;;;4972400;28;20485;-48
2022/03/26 11:01:58;;;;;;;11.55;9.40;;;12.90;99.90;;;;;;4972119;28;20042;-51
2022/03/26 11:04:26;;;;;;;13.20;10.00;;;12.90;99.90;;;;;;4972076;28;20123;-47
2022/03/26 11:06:52;;;;;;;14.13;9.02;;;13.00;99.90;;;;;;4972168;28;20029;-50
2022/03/26 11:09:19;;;;;;;13.23;9.63;;;13.00;99.90;;;;;;4972376;28;20073;-49
2022/03/26 11:11:45;;;;;;;14.85;9.73;;;13.00;99.90;;;;;;5032950;22;20404;-50
2022/03/26 11:14:29;;;;;;;13.48;9.43;;;13.10;99.90;;;;;;5029891;28;20036;-51
2022/03/26 11:17:32;;;;;;;12.95;9.82;;;13.10;99.90;;;;;;5030086;28;20530;-54
2022/03/26 11:20:31;;;;;;;15.77;8.98;;;13.10;99.90;;;;;;5029709;28;20060;-51
2022/03/26 11:23:15;;;;;;;11.43;7.65;;;13.10;99.90;;;;;;5010353;28;20040;-52
2022/03/26 11:26:03;;;;;;;9.48;6.30;;;13.20;99.90;;;;;;5011023;28;20030;-51
2022/03/26 11:28:58;;;;;;;7.70;5.03;;;13.20;99.90;;;;;;5011182;28;20034;-50
2022/03/26 11:31:48;;;;;;;5.32;4.05;;;13.30;99.90;;;;;;5011589;28;20094;-50
2022/03/26 11:34:17;;;;;;;5.25;4.10;;;13.30;99.90;;;;;;5011372;28;20026;-52
2022/03/26 11:36:43;;;;;;;5.40;3.58;;;13.50;99.90;;;;;;5010940;28;20037;-50
2022/03/26 11:39:17;;;;;;;5.53;4.05;;;13.30;99.90;;;;;;5011424;28;20431;-54
2022/03/26 11:41:44;;;;;;;6.47;3.92;;;13.30;99.90;;;;;;5010764;28;20113;-54
2022/03/26 11:44:11;;;;;;;8.75;5.22;;;13.40;99.90;;;;;;5010857;28;20022;-50
2022/03/26 11:52:26;;;;;;;7.75;5.43;;;13.70;99.90;;;;;;5004120;28;20049;-52
2022/03/26 11:55:27;;;;;;;8.60;6.07;;;13.80;99.90;;;;;;5003600;28;20040;-52
2022/03/26 11:58:17;;;;;;;8.02;5.55;;;13.70;99.90;;;;;;5002378;28;20149;-52
2022/03/26 12:01:04;;;;;;;7.72;5.60;;;13.80;99.90;;;;;;4998273;28;20033;-50
2022/03/26 12:03:40;;;;;;;7.18;4.50;;;13.90;99.90;;;;;;5009825;28;20029;-49
2022/03/26 12:08:54;;;;;;;8.18;5.45;;;13.90;99.90;;;;;;5010881;28;20099;-52
2022/03/26 12:11:27;;;;;;;8.65;4.45;;;13.90;99.90;;;;;;5010696;28;20026;-50
2022/03/26 12:14:07;;;;;;;5.35;4.85;;;14.00;99.90;;;;;;5010173;28;20429;-51
2022/03/26 12:16:50;;;;;;;9.50;4.85;;;13.90;99.90;;;;;;5010091;28;20026;-50
2022/03/26 12:19:38;;;;;;;9.25;5.35;;;13.90;99.90;;;;;;5009862;28;20022;-51
2022/03/26 12:22:28;;;;;;;5.72;4.57;;;13.90;99.90;;;;;;5010181;28;20491;-51
2022/03/26 12:24:58;;;;;;;6.57;4.20;;;14.00;99.90;;;;;;5010124;28;20029;-50
2022/03/26 12:27:24;;;;;;;6.03;4.40;;;14.10;99.90;;;;;;5010298;28;20481;-52
2022/03/26 12:29:54;;;;;;;8.20;4.78;;;14.20;99.90;;;;;;5010159;28;20073;-53
2022/03/26 12:32:20;;;;;;;6.57;5.22;;;14.30;99.90;;;;;;5009587;28;20022;-52
2022/03/26 12:34:56;;;;;;;6.03;4.32;;;14.10;99.90;;;;;;5009464;28;20040;-51
2022/03/26 12:37:23;;;;;;;7.30;4.60;;;14.00;99.90;;;;;;5010004;28;20028;-53
2022/03/26 12:39:50;;;;;;;7.93;5.25;;;14.10;99.90;;;;;;5010219;28;20131;-54
2022/03/26 12:42:16;;;;;;;6.30;4.00;;;14.20;99.90;;;;;;5009822;28;20037;-52
2022/03/26 12:44:41;;;;;;;9.00;4.50;;;14.30;99.90;;;;;;5009874;28;20613;-54
2022/03/26 12:47:07;;;;;;;8.00;3.88;;;14.30;99.90;;;;;;5009991;28;20069;-51
2022/03/26 12:49:37;;;;;;;5.90;3.83;;;14.20;99.90;;;;;;5011139;28;20022;-56